createdAt,value
2024-01-15T00:04:24.397Z,-4.44
2024-01-15T00:09:27.254Z,-4.47
2024-01-15T00:14:29.214Z,-4.41
2024-01-15T00:19:30.905Z,-4.35
2024-01-15T00:24:33.964Z,-4.42
2024-01-15T00:29:35.491Z,-4.40
2024-01-15T00:34:37.274Z,-4.40
2024-01-15T00:39:40.251Z,-4.39
2024-01-15T00:44:43.252Z,-4.17
2024-01-15T00:49:44.979Z,-4.09
2024-01-15T00:54:48.107Z,-4.04
2024-01-15T00:59:49.703Z,-4.02
2024-01-15T01:04:51.262Z,-3.98
2024-01-15T01:09:54.236Z,-3.94
2024-01-15T01:14:55.803Z,-3.92
2024-01-15T01:19:57.667Z,-3.89
2024-01-15T01:25:00.822Z,-3.86
2024-01-15T01:30:02.678Z,-3.88
2024-01-15T01:35:05.211Z,-3.83
2024-01-15T01:40:09.470Z,-3.81
2024-01-15T01:45:11.850Z,-3.83
2024-01-15T01:50:14.104Z,-3.85
2024-01-15T01:55:17.270Z,-3.85
2024-01-15T02:00:19.341Z,-3.82
2024-01-15T02:05:21.118Z,-3.81
2024-01-15T02:10:24.061Z,-3.81
2024-01-15T02:15:25.824Z,-3.83
2024-01-15T02:20:27.750Z,-3.85
2024-01-15T02:25:30.679Z,-3.84
2024-01-15T02:30:32.875Z,-3.82
2024-01-15T02:35:34.795Z,-3.76
2024-01-15T02:40:39.646Z,-3.75
2024-01-15T02:45:41.649Z,-3.70
2024-01-15T02:50:43.353Z,-3.66
2024-01-15T02:55:46.251Z,-3.63
2024-01-15T03:00:47.937Z,-3.61
2024-01-15T03:05:49.489Z,-3.65
2024-01-15T03:10:52.407Z,-3.65
2024-01-15T03:15:53.944Z,-3.68
2024-01-15T03:20:55.458Z,-3.77
2024-01-15T03:25:58.506Z,-3.82
2024-01-15T03:31:00.161Z,-3.89
2024-01-15T03:36:01.842Z,-3.93
2024-01-15T03:41:04.758Z,-3.92
2024-01-15T03:46:06.496Z,-3.97
2024-01-15T03:51:08.048Z,-4.04
2024-01-15T03:56:10.968Z,-4.05
2024-01-15T04:01:13.438Z,-4.09
2024-01-15T04:06:15.128Z,-4.10
2024-01-15T04:11:18.084Z,-4.14
2024-01-15T04:16:19.592Z,-4.04
2024-01-15T04:21:21.144Z,-3.96
2024-01-15T04:26:24.069Z,-3.91
2024-01-15T04:31:26.773Z,-3.74
2024-01-15T04:36:28.467Z,-3.67
2024-01-15T04:41:31.337Z,-3.48
2024-01-15T04:46:32.996Z,-3.40
2024-01-15T04:51:35.448Z,-3.39
2024-01-15T04:56:38.295Z,-3.29
2024-01-15T05:01:39.960Z,-3.26
2024-01-15T05:06:41.623Z,-3.27
2024-01-15T05:11:44.560Z,-3.24
2024-01-15T05:16:47.923Z,-3.18
2024-01-15T05:21:49.597Z,-3.19
2024-01-15T05:26:52.840Z,-3.19
2024-01-15T05:31:54.581Z,-3.21
2024-01-15T05:36:56.262Z,-3.23
2024-01-15T05:41:59.605Z,-3.19
2024-01-15T05:47:01.260Z,-3.24
2024-01-15T05:52:02.971Z,-3.23
2024-01-15T05:57:05.908Z,-3.26
2024-01-15T06:02:07.434Z,-3.30
2024-01-15T06:07:09.122Z,-3.23
2024-01-15T06:12:12.117Z,-3.28
2024-01-15T06:17:13.700Z,-3.30
2024-01-15T06:22:15.299Z,-3.24
2024-01-15T06:27:18.247Z,-3.23
2024-01-15T06:32:19.924Z,-3.27
2024-01-15T06:37:21.534Z,-3.33
2024-01-15T06:42:24.504Z,-3.41
2024-01-15T06:47:26.161Z,-3.43
2024-01-15T06:52:27.761Z,-3.41
2024-01-15T06:57:30.651Z,-3.41
2024-01-15T07:02:32.288Z,-3.37
2024-01-15T07:07:34.004Z,-3.35
2024-01-15T07:12:37.142Z,-3.34
2024-01-15T07:17:38.743Z,-3.30
2024-01-15T07:22:40.287Z,-3.30
2024-01-15T07:27:43.277Z,-3.28
2024-01-15T07:32:44.887Z,-3.23
2024-01-15T07:37:46.466Z,-3.20
2024-01-15T07:42:49.405Z,-3.19
2024-01-15T07:47:51.278Z,-3.20
2024-01-15T07:52:52.840Z,-3.11
2024-01-15T07:58:02.544Z,-3.09
2024-01-15T08:03:08.339Z,-3.02
2024-01-15T08:08:09.978Z,-3.04
2024-01-15T08:13:13.013Z,-2.95
2024-01-15T08:18:14.794Z,-2.91
2024-01-15T08:23:16.443Z,-2.85
2024-01-15T08:28:19.337Z,-2.81
2024-01-15T08:33:22.362Z,-2.73
2024-01-15T08:38:24.429Z,-2.59
2024-01-15T08:43:27.473Z,-2.55
2024-01-15T08:48:29.140Z,-2.52
2024-01-15T08:53:30.838Z,-2.54
2024-01-15T08:58:33.762Z,-2.48
2024-01-15T09:03:35.643Z,-2.42
2024-01-15T09:08:37.207Z,-2.14
2024-01-15T09:13:40.071Z,-1.76
2024-01-15T09:18:41.670Z,-1.48
2024-01-15T09:23:43.550Z,-1.14
2024-01-15T09:28:46.512Z,-0.96
2024-01-15T09:33:48.555Z,-0.56
2024-01-15T09:38:50.289Z,-0.41
2024-01-15T09:43:53.276Z,-0.48
2024-01-15T09:48:54.919Z,-0.48
2024-01-15T09:53:56.827Z,-0.61
2024-01-15T09:59:00.938Z,-0.79
2024-01-15T10:04:02.601Z,-0.64
2024-01-15T10:09:04.429Z,-0.76
2024-01-15T10:14:07.562Z,-0.93
2024-01-15T10:19:09.517Z,-0.76
2024-01-15T10:24:11.204Z,-0.68
2024-01-15T10:29:15.999Z,-0.60
2024-01-15T10:34:17.759Z,-0.46
2024-01-15T10:39:19.370Z,-0.36
2024-01-15T10:44:22.382Z,-0.24
2024-01-15T10:49:24.387Z,-0.07
2024-01-15T10:54:28.151Z,-0.13
2024-01-15T10:59:31.459Z,-0.24
2024-01-15T11:04:33.777Z,-0.15
2024-01-15T11:09:36.088Z,-0.22
2024-01-15T11:14:42.150Z,-0.30
2024-01-15T11:19:45.336Z,-0.33
2024-01-15T11:24:47.201Z,-0.27
2024-01-15T11:30:04.337Z,-0.16
2024-01-15T11:35:06.834Z,-0.08
2024-01-15T11:40:08.973Z,-0.12
2024-01-15T11:45:11.993Z,-0.21
2024-01-15T11:50:13.727Z,-0.23
2024-01-15T11:55:20.148Z,-0.38
2024-01-15T12:00:24.914Z,-0.53
2024-01-15T12:05:26.804Z,-0.49
2024-01-15T12:10:28.300Z,-0.56
2024-01-15T12:15:31.975Z,-0.42
2024-01-15T12:20:33.721Z,-0.29
2024-01-15T12:25:35.600Z,-0.33
2024-01-15T12:30:38.705Z,-0.42
2024-01-15T12:35:40.454Z,-0.33
2024-01-15T12:40:46.177Z,-0.33
2024-01-15T12:45:51.784Z,-0.36
2024-01-15T12:50:53.535Z,-0.41
2024-01-15T12:55:55.322Z,-0.46
2024-01-15T13:00:58.360Z,-0.45
2024-01-15T13:06:00.172Z,-0.50
2024-01-15T13:11:01.902Z,-0.55
2024-01-15T13:16:05.563Z,-0.49
2024-01-15T13:21:07.170Z,-0.53
2024-01-15T13:26:08.666Z,-0.66
2024-01-15T13:31:11.674Z,-0.68
2024-01-15T13:36:13.330Z,-0.72
2024-01-15T13:41:14.954Z,-0.92
2024-01-15T13:46:17.849Z,-1.06
2024-01-15T13:51:19.546Z,-1.05
2024-01-15T13:56:21.689Z,-1.06
2024-01-15T14:01:25.153Z,-1.09
2024-01-15T14:06:26.876Z,-1.21
2024-01-15T14:11:28.524Z,-1.24
2024-01-15T14:16:31.423Z,-1.30
2024-01-15T14:21:33.026Z,-1.36
2024-01-15T14:26:34.648Z,-1.45
2024-01-15T14:31:37.624Z,-1.30
2024-01-15T14:36:39.387Z,-1.45
2024-01-15T14:41:40.974Z,-1.48
2024-01-15T14:46:43.807Z,-1.64
2024-01-15T14:51:45.364Z,-1.60
2024-01-15T14:56:46.955Z,-1.57
2024-01-15T15:01:51.185Z,-1.58
2024-01-15T15:06:52.978Z,-1.64
2024-01-15T15:11:54.658Z,-1.74
2024-01-15T15:16:57.463Z,-1.76
2024-01-15T15:21:59.173Z,-1.73
2024-01-15T15:27:00.762Z,-1.80
2024-01-15T15:32:03.894Z,-1.85
2024-01-15T15:37:05.512Z,-1.89
2024-01-15T15:42:07.121Z,-1.95
2024-01-15T15:47:10.391Z,-1.97
2024-01-15T15:52:11.934Z,-2.01
2024-01-15T15:57:13.663Z,-2.00
2024-01-15T16:02:16.598Z,-2.04
2024-01-15T16:07:18.164Z,-2.11
2024-01-15T16:12:19.808Z,-2.12
2024-01-15T16:23:15.473Z,-2.27
2024-01-15T16:23:43.607Z,-2.45
2024-01-15T16:28:06.388Z,-2.54
2024-01-15T16:33:09.367Z,-2.62
2024-01-15T16:38:11.041Z,-2.69
2024-01-15T16:43:12.568Z,-2.73
2024-01-15T16:48:15.734Z,-2.79
2024-01-15T16:53:17.422Z,-2.81
2024-01-15T16:58:19.002Z,-2.85
2024-01-15T17:03:22.009Z,-2.96
2024-01-15T17:08:23.662Z,-3.04
2024-01-15T17:13:25.243Z,-3.12
2024-01-15T17:18:28.255Z,-3.13
2024-01-15T17:23:30.386Z,-3.12
2024-01-15T17:28:31.931Z,-3.18
2024-01-15T17:33:34.891Z,-3.25
2024-01-15T17:38:36.572Z,-3.36
2024-01-15T17:43:38.275Z,-3.40
2024-01-15T17:48:41.450Z,-3.29
2024-01-15T17:53:43.168Z,-3.42
2024-01-15T17:58:44.763Z,-3.44
2024-01-15T18:03:47.849Z,-3.45
2024-01-15T18:08:49.391Z,-3.44
2024-01-15T18:13:51.651Z,-3.40
2024-01-15T18:18:54.705Z,-3.34
2024-01-15T18:23:56.523Z,-3.35
2024-01-15T18:28:58.114Z,-3.32
2024-01-15T18:34:01.113Z,-3.35
2024-01-15T18:39:02.721Z,-3.37
2024-01-15T18:44:04.376Z,-3.34
2024-01-15T18:49:07.668Z,-3.31
2024-01-15T18:54:09.371Z,-3.31
2024-01-15T18:59:11.228Z,-3.32
2024-01-15T19:04:14.306Z,-3.45
2024-01-15T19:09:15.977Z,-3.53
2024-01-15T19:14:17.550Z,-3.50
2024-01-15T19:19:20.565Z,-3.58
2024-01-15T19:24:22.214Z,-3.71
2024-01-15T19:29:23.796Z,-3.68
2024-01-15T19:34:26.771Z,-3.75
2024-01-15T19:39:28.353Z,-3.89
2024-01-15T19:44:30.057Z,-3.92
2024-01-15T19:49:33.543Z,-3.89
2024-01-15T19:54:35.250Z,-4.05
2024-01-15T19:59:36.874Z,-3.93
2024-01-15T20:04:39.892Z,-3.93
2024-01-15T20:09:41.444Z,-4.00
2024-01-15T20:14:43.012Z,-4.04
2024-01-15T20:19:46.105Z,-4.02
2024-01-15T20:24:48.369Z,-3.87
2024-01-15T20:29:50.123Z,-3.79
2024-01-15T20:34:53.198Z,-3.80
2024-01-15T20:39:54.733Z,-3.84
2024-01-15T20:44:56.338Z,-3.74
2024-01-15T20:49:59.338Z,-3.79
2024-01-15T20:55:01.107Z,-3.83
2024-01-15T21:00:02.772Z,-3.82
2024-01-15T21:05:07.102Z,-3.66
2024-01-15T21:10:09.093Z,-3.62
2024-01-15T21:15:10.741Z,-3.57
2024-01-15T21:20:14.067Z,-3.53
2024-01-15T21:25:15.849Z,-3.49
2024-01-15T21:30:17.385Z,-3.54
2024-01-15T21:35:20.535Z,-3.51
2024-01-15T21:40:22.109Z,-3.47
2024-01-15T21:45:23.711Z,-3.42
2024-01-15T21:50:26.683Z,-3.41
2024-01-15T21:55:28.270Z,-3.41
2024-01-15T22:00:29.906Z,-3.39
2024-01-15T22:05:32.903Z,-3.36
2024-01-15T22:10:34.494Z,-3.36
2024-01-15T22:15:36.128Z,-3.40
2024-01-15T22:20:39.115Z,-3.37
2024-01-15T22:25:41.070Z,-3.35
2024-01-15T22:30:42.610Z,-3.37
2024-01-15T22:35:45.643Z,-3.36
2024-01-15T22:40:47.314Z,-3.36
2024-01-15T22:45:49.044Z,-3.35
2024-01-15T22:50:52.178Z,-3.43
2024-01-15T22:55:53.703Z,-3.33
2024-01-15T23:00:55.302Z,-3.29
2024-01-15T23:05:58.290Z,-3.33
2024-01-15T23:10:59.847Z,-3.39
2024-01-15T23:16:01.594Z,-3.34
2024-01-15T23:21:04.640Z,-3.33
2024-01-15T23:26:06.569Z,-3.34
2024-01-15T23:31:08.267Z,-3.46
2024-01-15T23:36:11.225Z,-3.49
2024-01-15T23:41:18.422Z,-3.54
2024-01-15T23:46:20.197Z,-3.62
2024-01-15T23:51:23.087Z,-3.67
2024-01-15T23:56:24.723Z,-3.72
